sensor_id;sensor_type;location;lat;lon;timestamp;P1;durP1;ratioP1;P2;durP2;ratioP2
80264;SDS011;69975;43.608;3.886;2023-07-13T12:18:29;595.000000;;;;;
80264;SDS011;69975;43.608;3.886;2023-07-13T12:18:33;593.000000;;;;;
80264;SDS011;69975;43.608;3.886;2023-07-13T12:18:48;592.000000;;;;;
80264;SDS011;69975;43.608;3.886;2023-07-13T12:21:12;597.000000;;;;;
80264;SDS011;69975;43.608;3.886;2023-07-13T12:21:39;598.000000;;;;;
80264;SDS011;69975;43.608;3.886;2023-07-13T14:54:32;596.000000;;;;;
80264;SDS011;69975;43.608;3.886;2023-07-13T14:54:42;594.000000;;;;;
80264;SDS011;69975;43.608;3.886;2023-07-13T14:54:52;594.000000;;;;;
80264;SDS011;69975;43.608;3.886;2023-07-13T14:55:09;601.000000;;;;;
80264;SDS011;69975;43.608;3.886;2023-07-13T14:55:36;597.000000;;;;;
80264;SDS011;69975;43.608;3.886;2023-07-13T14:55:50;597.000000;;;;;
80264;SDS011;69975;43.608;3.886;2023-07-13T14:56:00;602.000000;;;;;
80264;SDS011;69975;43.608;3.886;2023-07-13T14:56:12;598.000000;;;;;
80264;SDS011;69975;43.608;3.886;2023-07-13T14:56:26;600.000000;;;;;
80264;SDS011;69975;43.608;3.886;2023-07-13T14:56:40;601.000000;;;;;
80264;SDS011;69975;43.608;3.886;2023-07-13T14:56:58;597.000000;;;;;
80264;SDS011;69975;43.608;3.886;2023-07-13T14:57:11;598.000000;;;;;
80264;SDS011;69975;43.608;3.886;2023-07-13T14:57:23;612.000000;;;;;
80264;SDS011;69975;43.608;3.886;2023-07-13T14:57:34;599.000000;;;;;
80264;SDS011;69975;43.608;3.886;2023-07-13T14:57:45;598.000000;;;;;
80264;SDS011;69975;43.608;3.886;2023-07-13T14:57:55;600.000000;;;;;
80264;SDS011;69975;43.608;3.886;2023-07-13T14:58:05;598.000000;;;;;
80264;SDS011;69975;43.608;3.886;2023-07-13T14:58:20;599.000000;;;;;
80264;SDS011;69975;43.608;3.886;2023-07-13T14:58:38;604.000000;;;;;
80264;SDS011;69975;43.608;3.886;2023-07-13T14:58:49;601.000000;;;;;
80264;SDS011;69975;43.608;3.886;2023-07-13T14:58:59;600.000000;;;;;
80264;SDS011;69975;43.608;3.886;2023-07-13T14:59:29;603.000000;;;;;
80264;SDS011;69975;43.608;3.886;2023-07-13T14:59:43;603.000000;;;;;
80264;SDS011;69975;43.608;3.886;2023-07-13T14:59:54;603.000000;;;;;
80264;SDS011;69975;43.608;3.886;2023-07-13T15:00:15;602.000000;;;;;
80264;SDS011;69975;43.608;3.886;2023-07-13T15:00:23;608.000000;;;;;
80264;SDS011;69975;43.608;3.886;2023-07-13T15:00:45;600.000000;;;;;
80264;SDS011;69975;43.608;3.886;2023-07-13T15:00:55;603.000000;;;;;
80264;SDS011;69975;43.608;3.886;2023-07-13T15:01:13;601.000000;;;;;
80264;SDS011;69975;43.608;3.886;2023-07-13T15:01:21;600.000000;;;;;
80264;SDS011;69975;43.608;3.886;2023-07-13T15:01:31;602.000000;;;;;
80264;SDS011;69975;43.608;3.886;2023-07-13T15:01:50;607.000000;;;;;
80264;SDS011;69975;43.608;3.886;2023-07-13T15:02:37;605.000000;;;;;
80264;SDS011;69975;43.608;3.886;2023-07-13T15:02:53;606.000000;;;;;
80264;SDS011;69975;43.608;3.886;2023-07-13T15:03:17;609.000000;;;;;
80264;SDS011;69975;43.608;3.886;2023-07-13T15:03:21;609.000000;;;;;
80264;SDS011;69975;43.608;3.886;2023-07-13T15:03:30;608.000000;;;;;
80264;SDS011;69975;43.608;3.886;2023-07-13T15:03:44;605.000000;;;;;
80264;SDS011;69975;43.608;3.886;2023-07-13T15:03:52;607.000000;;;;;
80264;SDS011;69975;43.608;3.886;2023-07-13T15:04:03;607.000000;;;;;
80264;SDS011;69975;43.608;3.886;2023-07-13T15:04:16;602.000000;;;;;
80264;SDS011;69975;43.608;3.886;2023-07-13T15:04:27;603.000000;;;;;
80264;SDS011;69975;43.608;3.886;2023-07-13T15:04:49;604.000000;;;;;
80264;SDS011;69975;43.608;3.886;2023-07-13T15:04:59;606.000000;;;;;
80264;SDS011;69975;43.608;3.886;2023-07-13T15:05:12;606.000000;;;;;
80264;SDS011;69975;43.608;3.886;2023-07-13T15:05:27;605.000000;;;;;
80264;SDS011;69975;43.608;3.886;2023-07-13T15:05:43;601.000000;;;;;
80264;SDS011;69975;43.608;3.886;2023-07-13T15:05:54;599.000000;;;;;
